Time;durP1;ratioP1;P1;durP2;ratioP2;P2;SDS_P1;SDS_P2;PMS_P1;PMS_P2;Temp;Humidity;BMP_temperature;BMP_pressure;BME280_temperature;BME280_humidity;BME280_pressure;Samples;Min_cycle;Max_cycle;Signal;HPM_P1;HPM_P2
2022/01/26 00:07:06;;;;;;;22.52;14.50;;;22.90;38.60;;;;;;6062187;28;83375;-67
2022/01/26 00:10:07;;;;;;;24.20;14.73;;;22.80;38.60;;;;;;6061508;28;83150;-68
2022/01/26 00:13:07;;;;;;;26.50;15.23;;;22.80;38.60;;;;;;6063119;28;84617;-67
2022/01/26 00:16:15;;;;;;;24.63;14.38;;;22.80;38.60;;;;;;6061432;28;83959;-66
2022/01/26 00:19:20;;;;;;;24.88;14.13;;;22.80;38.60;;;;;;6064155;28;83110;-66
2022/01/26 00:22:41;;;;;;;24.13;14.18;;;22.80;38.90;;;;;;6059434;28;83240;-67
2022/01/26 00:26:05;;;;;;;24.67;15.13;;;22.80;38.80;;;;;;6058460;28;82933;-68
2022/01/26 00:29:14;;;;;;;26.38;15.02;;;22.80;38.50;;;;;;6056368;28;83052;-68
2022/01/26 00:38:38;;;;;;;23.25;12.93;;;22.80;39.20;;;;;;6063588;28;83527;-68
2022/01/26 00:41:40;;;;;;;21.30;12.85;;;22.80;39.20;;;;;;6060681;28;84218;-68
2022/01/26 00:44:45;;;;;;;22.70;13.50;;;22.80;39.40;;;;;;6053488;28;83052;-68
2022/01/26 00:47:46;;;;;;;21.70;12.55;;;22.70;39.60;;;;;;6069663;28;83431;-68
2022/01/26 00:50:50;;;;;;;23.10;13.48;;;22.70;39.40;;;;;;6062648;28;83398;-68
2022/01/26 00:54:02;;;;;;;20.27;12.35;;;22.80;39.30;;;;;;6048447;28;84906;-68
2022/01/26 00:57:02;;;;;;;24.02;13.98;;;22.80;39.20;;;;;;6048437;28;84062;-68
2022/01/26 01:00:03;;;;;;;21.40;13.48;;;22.80;39.10;;;;;;6058956;28;84515;-67
2022/01/26 01:03:03;;;;;;;22.00;13.38;;;22.80;39.10;;;;;;6064872;28;83082;-67
2022/01/26 01:06:14;;;;;;;20.42;12.32;;;22.80;39.10;;;;;;6055680;28;83286;-65
2022/01/26 01:09:16;;;;;;;22.08;12.75;;;22.70;39.10;;;;;;6056044;28;88452;-65
2022/01/26 01:12:16;;;;;;;19.48;12.15;;;22.80;39.30;;;;;;6048052;28;84407;-65
2022/01/26 01:15:17;;;;;;;20.48;12.32;;;22.80;39.30;;;;;;6043362;28;84290;-66
2022/01/26 01:18:23;;;;;;;20.27;11.38;;;22.80;39.40;;;;;;6061047;28;83062;-65
2022/01/26 01:28:26;;;;;;;21.90;12.88;;;22.80;39.10;;;;;;6055499;28;82810;-66
2022/01/26 01:32:01;;;;;;;19.20;12.27;;;22.80;39.00;;;;;;6060594;28;83362;-66
2022/01/26 01:34:54;;;;;;;18.52;12.10;;;22.80;39.00;;;;;;6043423;28;83580;-65
2022/01/26 01:37:55;;;;;;;19.02;12.20;;;22.70;39.60;;;;;;6059214;28;84538;-65
2022/01/26 01:40:55;;;;;;;21.45;12.38;;;22.70;39.70;;;;;;6049946;28;84297;-66
2022/01/26 01:43:56;;;;;;;17.45;11.40;;;22.70;39.70;;;;;;6049653;28;83020;-66
2022/01/26 01:46:57;;;;;;;20.40;11.98;;;22.70;39.60;;;;;;6050182;28;85533;-66
2022/01/26 01:49:57;;;;;;;19.23;12.05;;;22.70;40.70;;;;;;6060041;28;83130;-66
2022/01/26 01:53:01;;;;;;;19.52;11.82;;;22.70;39.80;;;;;;6050384;28;83094;-66
2022/01/26 01:56:02;;;;;;;18.00;11.38;;;22.70;40.00;;;;;;6043350;28;84196;-66
2022/01/26 01:59:02;;;;;;;18.65;12.00;;;22.70;40.00;;;;;;6048406;28;84054;-65
2022/01/26 02:02:03;;;;;;;21.35;12.00;;;22.60;40.00;;;;;;6058753;28;83429;-65
2022/01/26 02:05:03;;;;;;;16.20;10.68;;;22.60;40.00;;;;;;6058252;28;83526;-66
2022/01/26 02:08:04;;;;;;;17.98;10.38;;;22.60;40.00;;;;;;6057540;28;83009;-66
2022/01/26 02:11:06;;;;;;;18.02;11.40;;;22.70;40.10;;;;;;6060736;28;83782;-66
2022/01/26 02:14:13;;;;;;;20.30;11.77;;;22.60;39.90;;;;;;6060887;28;90324;-66
2022/01/26 02:50:35;;;;;;;14.40;9.32;;;22.60;38.90;;;;;;6056477;28;83319;-66
2022/01/26 03:03:30;;;;;;;14.75;9.43;;;22.60;38.90;;;;;;6029241;28;83404;-65
2022/01/26 03:06:40;;;;;;;14.45;9.75;;;22.60;38.90;;;;;;6053936;28;85092;-65
2022/01/26 03:09:49;;;;;;;16.42;9.82;;;22.60;38.80;;;;;;6061539;28;81192;-65
2022/01/26 03:13:00;;;;;;;15.45;9.18;;;22.60;38.80;;;;;;6048664;28;80603;-66
2022/01/26 03:16:10;;;;;;;15.95;10.05;;;22.60;38.90;;;;;;6059639;28;81677;-66
2022/01/26 03:35:18;;;;;;;13.02;8.90;;;22.60;39.10;;;;;;6078425;28;80613;-65
2022/01/26 03:38:24;;;;;;;15.18;9.63;;;22.60;39.10;;;;;;6051461;28;80992;-65
2022/01/26 03:44:34;;;;;;;14.38;9.13;;;22.60;39.10;;;;;;6060627;28;81652;-65
2022/01/26 03:47:35;;;;;;;13.75;8.88;;;22.60;39.00;;;;;;6061534;28;80509;-65
2022/01/26 03:50:35;;;;;;;13.88;8.85;;;22.60;38.90;;;;;;6065356;28;82034;-65
2022/01/26 03:53:36;;;;;;;14.35;8.82;;;22.60;38.90;;;;;;6064839;28;80650;-66
2022/01/26 03:56:36;;;;;;;12.30;8.27;;;22.60;39.00;;;;;;6064547;28;81540;-66
2022/01/26 03:59:37;;;;;;;14.32;8.85;;;22.60;38.90;;;;;;6066752;28;80479;-66
2022/01/26 04:02:37;;;;;;;13.93;8.40;;;22.60;38.90;;;;;;6061626;28;80849;-65
2022/01/26 04:05:38;;;;;;;13.88;8.70;;;22.60;38.90;;;;;;6061290;28;80603;-65
2022/01/26 04:08:41;;;;;;;14.90;9.35;;;22.60;38.80;;;;;;6064153;28;80924;-66
2022/01/26 04:11:46;;;;;;;13.65;8.50;;;22.60;39.40;;;;;;6065319;28;80823;-67
2022/01/26 04:14:53;;;;;;;16.60;8.75;;;22.60;38.70;;;;;;6069485;28;80527;-69
2022/01/26 04:17:54;;;;;;;11.93;7.75;;;22.60;38.40;;;;;;6063149;28;80053;-66
2022/01/26 04:20:58;;;;;;;12.52;8.32;;;22.60;38.40;;;;;;6056276;28;80417;-66
2022/01/26 04:24:04;;;;;;;12.40;8.20;;;22.60;38.50;;;;;;6065262;28;80813;-66
2022/01/26 04:27:33;;;;;;;11.60;8.05;;;22.60;38.40;;;;;;6066819;28;80359;-66
2022/01/26 04:30:28;;;;;;;14.25;8.88;;;22.60;38.30;;;;;;6062581;28;86188;-65
2022/01/26 04:33:32;;;;;;;12.68;8.32;;;22.60;38.30;;;;;;6062316;28;80846;-65
2022/01/26 04:36:39;;;;;;;11.38;7.75;;;22.60;38.20;;;;;;6065911;28;80728;-65
2022/01/26 04:39:50;;;;;;;13.98;8.93;;;22.60;38.10;;;;;;6054520;28;81369;-65
2022/01/26 04:42:58;;;;;;;14.85;8.73;;;22.60;38.20;;;;;;6048136;28;80950;-65
2022/01/26 04:45:59;;;;;;;13.85;9.23;;;22.60;38.20;;;;;;6062455;28;80542;-66
2022/01/26 04:49:00;;;;;;;14.23;8.82;;;22.60;38.30;;;;;;6062727;28;80539;-66
2022/01/26 04:52:00;;;;;;;13.15;8.70;;;22.60;38.20;;;;;;6067954;28;80682;-65
2022/01/26 04:55:01;;;;;;;12.73;8.88;;;22.60;38.20;;;;;;6065988;28;80431;-65
2022/01/26 04:58:01;;;;;;;14.05;9.63;;;22.60;38.10;;;;;;6062033;28;80246;-64
2022/01/26 05:01:02;;;;;;;13.85;8.88;;;22.60;38.10;;;;;;6064225;28;80303;-64
2022/01/26 05:04:02;;;;;;;14.20;8.93;;;22.50;38.30;;;;;;6047651;28;80982;-64
2022/01/26 05:07:03;;;;;;;13.85;9.05;;;22.50;38.40;;;;;;6065063;28;80534;-65
2022/01/26 05:10:04;;;;;;;14.50;9.63;;;22.50;38.60;;;;;;6063801;28;80914;-65
2022/01/26 05:13:04;;;;;;;13.77;9.48;;;22.50;38.80;;;;;;6040055;28;82093;-66
2022/01/26 05:16:07;;;;;;;13.05;8.45;;;22.60;39.40;;;;;;6056995;28;80428;-66
2022/01/26 05:19:08;;;;;;;12.55;8.43;;;22.60;40.10;;;;;;6048043;28;81974;-66
2022/01/26 05:22:08;;;;;;;12.88;8.15;;;22.60;39.60;;;;;;6064214;28;80188;-66
2022/01/26 05:25:09;;;;;;;11.02;7.45;;;22.60;39.10;;;;;;6058672;28;81609;-66
2022/01/26 05:28:09;;;;;;;13.10;8.98;;;22.60;39.10;;;;;;6080292;28;80700;-65
2022/01/26 05:31:11;;;;;;;13.48;8.73;;;22.70;39.00;;;;;;6058065;28;81353;-65
2022/01/26 05:34:12;;;;;;;16.92;9.00;;;22.70;38.80;;;;;;6062665;28;82247;-64
2022/01/26 05:37:12;;;;;;;12.65;8.77;;;22.70;38.50;;;;;;6064224;28;80464;-64
2022/01/26 05:40:13;;;;;;;13.20;8.25;;;22.80;38.50;;;;;;6048104;28;80393;-64
2022/01/26 05:43:15;;;;;;;15.13;10.05;;;22.80;38.50;;;;;;6063777;28;80792;-63
2022/01/26 05:46:33;;;;;;;14.68;9.32;;;22.90;38.40;;;;;;6047343;28;83012;-64
2022/01/26 05:49:33;;;;;;;15.40;9.32;;;22.90;38.50;;;;;;6055607;28;84238;-65
2022/01/26 05:52:34;;;;;;;14.18;9.10;;;23.00;38.80;;;;;;6048407;28;80719;-63
2022/01/26 05:55:34;;;;;;;17.88;11.02;;;23.00;38.80;;;;;;6063236;28;80784;-63
2022/01/26 05:58:35;;;;;;;15.85;9.25;;;23.00;38.80;;;;;;6040354;28;83090;-63
2022/01/26 06:01:35;;;;;;;16.90;10.65;;;23.10;38.70;;;;;;6066374;28;82985;-63
2022/01/26 06:04:36;;;;;;;18.50;9.85;;;23.10;38.90;;;;;;6051022;28;83215;-63
2022/01/26 06:07:36;;;;;;;16.02;9.88;;;23.20;39.50;;;;;;6057140;28;82973;-64
2022/01/26 06:10:37;;;;;;;15.95;10.40;;;23.20;39.00;;;;;;6058093;28;80346;-64
2022/01/26 06:13:37;;;;;;;18.67;10.57;;;23.20;38.90;;;;;;6045594;28;83192;-64
2022/01/26 06:16:38;;;;;;;15.85;9.95;;;23.30;39.20;;;;;;6040858;28;85219;-65
2022/01/26 06:19:38;;;;;;;15.65;9.60;;;23.20;38.90;;;;;;6054418;28;83007;-64
2022/01/26 06:22:39;;;;;;;15.65;9.68;;;23.30;38.80;;;;;;6059596;28;81094;-62
2022/01/26 06:25:39;;;;;;;18.52;8.82;;;23.30;38.80;;;;;;6057393;28;83291;-62
2022/01/26 06:28:40;;;;;;;13.75;9.00;;;23.30;40.00;;;;;;6051241;28;80738;-62
2022/01/26 06:31:41;;;;;;;14.57;8.10;;;23.30;40.70;;;;;;6048356;28;80211;-63
2022/01/26 06:34:42;;;;;;;15.75;9.18;;;23.30;41.30;;;;;;6053772;28;87292;-65
2022/01/26 06:37:43;;;;;;;14.60;9.02;;;23.20;41.90;;;;;;6056578;28;80317;-63
2022/01/26 06:40:43;;;;;;;17.60;10.60;;;23.20;43.20;;;;;;6043382;28;80561;-64
2022/01/26 06:43:51;;;;;;;18.40;9.85;;;23.20;43.90;;;;;;6058738;28;82747;-63
2022/01/26 06:50:02;;;;;;;15.63;9.50;;;23.20;45.00;;;;;;6068580;28;81326;-63
2022/01/26 06:53:02;;;;;;;14.30;8.95;;;23.20;45.60;;;;;;6072014;28;80395;-63
2022/01/26 06:56:03;;;;;;;12.23;8.15;;;23.30;46.20;;;;;;6060104;28;80323;-64
2022/01/26 06:59:03;;;;;;;14.75;8.65;;;23.20;46.20;;;;;;6062114;28;80968;-64
2022/01/26 07:02:04;;;;;;;16.25;8.40;;;23.30;46.60;;;;;;6060605;28;83474;-62
2022/01/26 07:05:04;;;;;;;18.30;8.73;;;23.20;46.90;;;;;;6047229;28;80826;-65
2022/01/26 07:08:05;;;;;;;14.10;7.95;;;23.20;47.00;;;;;;6063227;28;80841;-64
2022/01/26 07:11:05;;;;;;;9.88;6.90;;;23.20;47.10;;;;;;6061965;28;81853;-65
2022/01/26 07:14:09;;;;;;;11.55;7.32;;;23.20;47.40;;;;;;6054418;28;80751;-65
2022/01/26 07:23:32;;;;;;;10.07;6.60;;;23.10;48.10;;;;;;6059081;28;82245;-62
2022/01/26 07:26:33;;;;;;;12.70;7.70;;;23.10;47.60;;;;;;6065586;28;80385;-62
2022/01/26 07:29:33;;;;;;;10.77;7.55;;;23.10;47.10;;;;;;6067229;28;80644;-62
2022/01/26 07:32:36;;;;;;;12.18;7.70;;;23.10;46.50;;;;;;6048219;28;82376;-62
2022/01/26 07:35:37;;;;;;;13.90;8.20;;;23.20;46.70;;;;;;6062779;28;82015;-62
2022/01/26 07:38:37;;;;;;;12.75;8.18;;;23.10;46.60;;;;;;6058228;28;80418;-62
2022/01/26 07:41:38;;;;;;;17.60;8.38;;;23.10;46.30;;;;;;6041094;28;80980;-64
2022/01/26 07:44:38;;;;;;;14.85;8.98;;;23.20;46.30;;;;;;6037273;29;80583;-63
2022/01/26 07:47:39;;;;;;;12.98;8.70;;;23.10;45.90;;;;;;6043745;28;81653;-64
2022/01/26 07:50:39;;;;;;;14.80;7.65;;;23.10;45.80;;;;;;6043815;28;81284;-64
2022/01/26 07:53:40;;;;;;;12.15;7.78;;;23.10;45.50;;;;;;6050894;28;83749;-63
2022/01/26 07:56:42;;;;;;;14.55;8.45;;;23.10;45.60;;;;;;6030834;28;80087;-63
2022/01/26 07:59:43;;;;;;;15.23;8.80;;;23.10;45.60;;;;;;6034038;29;80471;-65
2022/01/26 08:02:44;;;;;;;13.55;7.97;;;23.00;45.40;;;;;;6035732;28;80387;-65
2022/01/26 08:05:44;;;;;;;12.43;7.35;;;23.00;45.10;;;;;;6040401;28;81831;-67
2022/01/26 08:08:45;;;;;;;11.55;7.88;;;23.00;46.00;;;;;;6042136;28;80479;-64
2022/01/26 08:11:45;;;;;;;12.55;8.40;;;23.00;46.00;;;;;;6010845;29;81581;-64
2022/01/26 08:14:46;;;;;;;10.10;7.28;;;23.00;45.70;;;;;;6040549;28;81347;-66
2022/01/26 08:17:46;;;;;;;59.38;28.35;;;23.00;45.70;;;;;;6041796;28;81017;-65
2022/01/26 08:20:47;;;;;;;181.32;87.32;;;23.00;45.70;;;;;;6039565;28;85692;-65
2022/01/26 08:23:48;;;;;;;186.82;87.07;;;23.00;46.40;;;;;;6038414;28;83508;-63
2022/01/26 08:26:50;;;;;;;262.48;125.55;;;22.90;45.90;;;;;;6032761;28;82936;-65
2022/01/26 08:29:55;;;;;;;226.73;104.38;;;22.90;46.30;;;;;;6024606;28;86054;-64
2022/01/26 08:32:55;;;;;;;226.93;105.97;;;22.90;46.20;;;;;;6034397;28;86795;-64
2022/01/26 08:35:56;;;;;;;270.92;129.40;;;22.90;46.20;;;;;;6034429;28;85717;-65
2022/01/26 08:38:56;;;;;;;225.10;109.47;;;23.00;46.30;;;;;;6059287;28;87052;-65
2022/01/26 08:41:57;;;;;;;187.43;93.22;;;22.90;45.90;;;;;;6057636;28;87214;-63
2022/01/26 08:44:57;;;;;;;175.52;80.43;;;22.90;45.40;;;;;;6063302;28;85622;-65
2022/01/26 08:47:58;;;;;;;143.57;70.50;;;22.90;45.90;;;;;;6062004;28;83637;-63
2022/01/26 08:50:58;;;;;;;119.93;59.67;;;22.90;45.60;;;;;;6063898;28;83113;-64
2022/01/26 08:53:59;;;;;;;116.13;56.55;;;22.90;45.70;;;;;;6060911;28;83737;-65
2022/01/26 08:56:59;;;;;;;95.30;48.30;;;22.90;45.50;;;;;;6059845;28;83057;-64
2022/01/26 09:00:01;;;;;;;90.85;44.72;;;22.90;45.40;;;;;;6058746;28;84171;-64
2022/01/26 09:03:01;;;;;;;85.43;41.38;;;22.90;45.40;;;;;;6059564;28;83418;-64
2022/01/26 09:06:02;;;;;;;80.85;38.17;;;22.90;45.40;;;;;;6056212;28;83256;-64
2022/01/26 09:09:08;;;;;;;72.13;35.58;;;22.90;45.70;;;;;;6060827;28;88818;-65
2022/01/26 09:12:09;;;;;;;;;;;22.90;45.80;;;;;;6060592;28;83681;-65
2022/01/26 09:15:10;;;;;;;60.40;30.35;;;22.90;46.00;;;;;;6064765;28;83482;-64
2022/01/26 09:18:17;;;;;;;57.40;28.40;;;22.90;46.20;;;;;;6058144;28;83213;-64
2022/01/26 09:21:18;;;;;;;53.35;27.65;;;22.90;47.10;;;;;;6058973;28;87886;-65
2022/01/26 09:24:18;;;;;;;57.70;25.85;;;22.90;47.70;;;;;;6057801;28;83242;-74
2022/01/26 09:27:19;;;;;;;51.00;27.48;;;22.90;48.40;;;;;;6059466;28;84338;-66
2022/01/26 09:30:19;;;;;;;55.33;27.27;;;22.90;49.20;;;;;;6060906;28;83716;-63
2022/01/26 09:33:20;;;;;;;45.08;23.85;;;22.90;49.90;;;;;;6056008;28;83611;-67
2022/01/26 09:36:20;;;;;;;40.30;21.65;;;23.00;50.10;;;;;;6067395;28;83221;-67
2022/01/26 09:39:21;;;;;;;36.85;19.90;;;23.00;50.60;;;;;;6064900;28;83326;-67
2022/01/26 09:42:22;;;;;;;41.08;22.15;;;23.00;51.20;;;;;;6060041;28;83490;-66
2022/01/26 09:45:23;;;;;;;36.03;19.40;;;23.00;50.90;;;;;;6055916;28;85066;-67
2022/01/26 09:48:24;;;;;;;31.67;18.40;;;22.90;50.80;;;;;;6059825;28;83331;-67
2022/01/26 09:51:24;;;;;;;36.42;19.50;;;23.00;50.70;;;;;;6060737;28;83181;-71
2022/01/26 09:54:30;;;;;;;29.92;16.13;;;23.00;49.90;;;;;;6060002;28;83711;-65
2022/01/26 09:57:30;;;;;;;28.75;16.85;;;22.90;49.80;;;;;;6060908;28;83667;-66
2022/01/26 10:00:31;;;;;;;25.92;15.27;;;23.00;49.50;;;;;;6057981;28;84048;-71
2022/01/26 10:03:35;;;;;;;26.23;14.80;;;23.00;49.00;;;;;;6056160;28;84630;-64
2022/01/26 10:06:41;;;;;;;21.65;13.10;;;22.90;48.50;;;;;;6054447;28;83354;-65
2022/01/26 10:10:05;;;;;;;21.67;12.93;;;22.90;48.90;;;;;;6053096;28;85368;-64
2022/01/26 10:19:24;;;;;;;19.15;11.40;;;22.90;47.10;;;;;;6053509;28;83254;-66
2022/01/26 10:22:24;;;;;;;17.23;11.05;;;22.80;47.40;;;;;;6054064;28;83533;-65
2022/01/26 10:25:25;;;;;;;16.75;10.27;;;22.90;47.70;;;;;;6055687;28;83242;-65
2022/01/26 10:28:26;;;;;;;20.70;11.32;;;22.80;47.30;;;;;;6056568;28;83457;-65
2022/01/26 10:31:26;;;;;;;20.25;11.02;;;22.90;47.20;;;;;;6054207;28;83145;-65
2022/01/26 10:34:27;;;;;;;19.00;9.77;;;22.90;46.80;;;;;;6058123;28;83546;-66
2022/01/26 10:37:28;;;;;;;19.05;10.85;;;22.90;46.90;;;;;;6070148;28;84321;-66
2022/01/26 10:40:29;;;;;;;16.85;10.10;;;22.80;46.80;;;;;;6058519;28;83083;-66
2022/01/26 10:43:31;;;;;;;18.10;11.13;;;22.80;47.00;;;;;;6057606;28;85774;-65
2022/01/26 10:46:34;;;;;;;20.20;11.10;;;22.80;46.50;;;;;;6061209;28;84383;-65
2022/01/26 10:52:54;;;;;;;16.88;10.90;;;22.80;46.10;;;;;;6064927;28;84678;-64
2022/01/26 10:55:55;;;;;;;19.33;11.70;;;22.80;46.10;;;;;;6059351;28;84208;-67
2022/01/26 10:58:55;;;;;;;22.02;12.32;;;22.80;46.70;;;;;;6060201;28;84664;-64
2022/01/26 11:01:59;;;;;;;20.33;12.50;;;22.80;46.80;;;;;;6062861;28;83374;-66
2022/01/26 11:05:00;;;;;;;22.65;12.93;;;22.90;48.20;;;;;;6065897;28;83221;-64
2022/01/26 11:08:00;;;;;;;18.45;12.07;;;22.90;49.20;;;;;;6062811;28;83904;-64
2022/01/26 11:11:01;;;;;;;24.25;13.25;;;22.90;48.40;;;;;;6056777;28;83628;-65
2022/01/26 11:14:01;;;;;;;24.27;12.60;;;22.90;49.10;;;;;;6054940;28;83453;-67
2022/01/26 11:17:02;;;;;;;20.58;12.25;;;22.90;48.50;;;;;;6064821;28;82964;-63
2022/01/26 11:20:03;;;;;;;22.33;12.77;;;22.80;48.70;;;;;;6061619;28;85463;-66
2022/01/26 11:23:03;;;;;;;20.45;12.10;;;22.90;48.10;;;;;;6062167;28;83465;-64
2022/01/26 11:26:04;;;;;;;19.20;12.13;;;22.90;48.60;;;;;;6078498;28;83206;-65
2022/01/26 11:29:04;;;;;;;20.95;12.52;;;22.80;48.40;;;;;;6048450;28;84037;-64
2022/01/26 11:32:12;;;;;;;23.73;11.52;;;22.90;48.30;;;;;;6061046;28;84867;-63
2022/01/26 11:35:12;;;;;;;18.52;12.20;;;22.90;47.80;;;;;;6062558;28;83081;-64
2022/01/26 11:42:16;;;;;;;20.05;13.00;;;22.90;47.30;;;;;;6051177;28;83175;-65
2022/01/26 11:45:09;;;;;;;22.25;13.38;;;22.90;46.70;;;;;;6045990;28;86032;-64
2022/01/26 11:48:09;;;;;;;21.65;12.75;;;22.90;46.90;;;;;;6061771;28;83232;-65
2022/01/26 11:51:10;;;;;;;25.23;14.15;;;22.90;46.50;;;;;;6063174;28;84222;-65
2022/01/26 11:54:11;;;;;;;28.65;14.88;;;22.80;46.90;;;;;;6050260;28;83648;-66
2022/01/26 11:57:15;;;;;;;27.90;15.25;;;22.80;47.00;;;;;;6046577;28;84883;-65
2022/01/26 12:00:21;;;;;;;25.02;14.30;;;22.80;46.30;;;;;;6057765;28;86440;-65
2022/01/26 12:03:22;;;;;;;26.48;14.15;;;22.80;47.00;;;;;;6056908;28;82936;-62
2022/01/26 12:06:22;;;;;;;27.20;15.05;;;22.80;47.20;;;;;;6058784;28;83275;-64
2022/01/26 12:09:24;;;;;;;26.60;15.48;;;22.90;47.80;;;;;;6060040;28;83437;-63
2022/01/26 12:12:24;;;;;;;28.25;14.88;;;22.80;46.80;;;;;;6058039;28;84084;-62
2022/01/26 12:15:25;;;;;;;30.88;15.73;;;22.90;46.80;;;;;;6054887;28;85407;-62
2022/01/26 12:37:59;;;;;;;27.92;15.50;;;22.90;45.10;;;;;;6060374;28;83420;-64
2022/01/26 12:44:29;;;;;;;25.83;14.43;;;22.90;45.40;;;;;;6036883;28;83182;-63
2022/01/26 12:47:30;;;;;;;26.98;15.23;;;22.90;45.40;;;;;;6061878;28;83493;-64
2022/01/26 12:50:30;;;;;;;23.48;13.65;;;22.90;44.80;;;;;;6055770;28;84533;-64
2022/01/26 12:53:32;;;;;;;25.75;13.60;;;22.90;44.90;;;;;;6062082;28;84285;-63
2022/01/26 12:56:33;;;;;;;26.35;13.52;;;22.90;45.00;;;;;;6057694;28;82910;-64
2022/01/26 12:59:33;;;;;;;24.98;13.50;;;22.90;44.60;;;;;;6069815;28;83118;-62
2022/01/26 13:02:34;;;;;;;26.98;13.35;;;22.80;44.20;;;;;;6056672;28;83464;-60
2022/01/26 13:05:34;;;;;;;24.00;13.88;;;22.80;44.70;;;;;;6061786;28;83797;-62
2022/01/26 13:08:35;;;;;;;24.13;12.57;;;22.80;44.20;;;;;;6059636;28;83717;-63
2022/01/26 13:11:35;;;;;;;26.75;14.43;;;22.80;44.60;;;;;;6062199;28;82898;-63
2022/01/26 13:14:55;;;;;;;24.95;13.82;;;22.80;44.40;;;;;;6050831;28;83431;-62
2022/01/26 13:18:07;;;;;;;21.50;13.10;;;22.80;44.10;;;;;;6061389;28;83462;-61
2022/01/26 13:21:32;;;;;;;23.15;13.50;;;22.80;43.80;;;;;;6062284;28;82912;-61
2022/01/26 13:40:49;;;;;;;24.17;13.50;;;22.80;42.80;;;;;;6047452;28;86319;-61
2022/01/26 13:44:27;;;;;;;23.75;14.63;;;22.80;42.70;;;;;;6048186;28;83014;-61
2022/01/26 13:50:50;;;;;;;19.48;12.02;;;22.70;42.60;;;;;;6059167;28;83213;-63
2022/01/26 13:54:13;;;;;;;25.63;13.38;;;22.70;42.40;;;;;;6060088;28;83367;-61
2022/01/26 14:00:40;;;;;;;23.48;13.07;;;22.70;42.30;;;;;;6049321;28;83128;-62
2022/01/26 14:03:40;;;;;;;18.45;12.32;;;22.70;42.30;;;;;;6049656;28;84154;-65
2022/01/26 14:06:41;;;;;;;23.40;13.93;;;22.70;42.50;;;;;;6062981;28;83603;-63
2022/01/26 14:09:42;;;;;;;20.80;12.38;;;22.70;42.20;;;;;;6061635;28;83817;-64
2022/01/26 14:12:47;;;;;;;19.98;13.30;;;22.70;42.30;;;;;;6061978;28;82728;-63
2022/01/26 14:15:50;;;;;;;23.73;12.65;;;22.70;42.60;;;;;;6056831;28;82894;-65
2022/01/26 14:25:23;;;;;;;19.65;11.98;;;22.70;42.20;;;;;;6052812;28;83298;-62
2022/01/26 14:28:30;;;;;;;25.35;13.57;;;22.70;42.30;;;;;;6050466;28;83309;-61
2022/01/26 14:31:50;;;;;;;19.95;11.30;;;22.70;42.70;;;;;;6049635;28;83621;-61
2022/01/26 14:55:26;;;;;;;18.88;11.55;;;22.70;42.20;;;;;;6056827;28;83482;-63
2022/01/26 15:08:43;;;;;;;20.80;11.88;;;22.70;42.20;;;;;;6052153;28;83065;-62
2022/01/26 15:34:36;;;;;;;37.45;20.13;;;22.80;41.50;;;;;;6057503;28;84518;-63
2022/01/26 15:44:42;;;;;;;231.45;115.53;;;22.80;41.40;;;;;;6058982;28;84690;-62
2022/01/26 15:51:05;;;;;;;352.90;172.30;;;22.80;41.10;;;;;;6059454;28;86881;-63
2022/01/26 16:07:20;;;;;;;158.65;79.00;;;22.80;41.80;;;;;;6059681;28;85595;-63
2022/01/26 16:19:57;;;;;;;115.32;58.53;;;22.90;41.90;;;;;;6059840;28;83943;-63
2022/01/26 16:36:47;;;;;;;87.82;43.22;;;22.90;41.50;;;;;;6047941;28;83568;-62
2022/01/26 16:52:33;;;;;;;65.38;34.17;;;22.90;41.20;;;;;;6066726;28;84269;-64
2022/01/26 18:51:26;;;;;;;14.68;8.77;;;23.00;41.70;;;;;;6065073;28;86677;-63
2022/01/26 18:54:26;;;;;;;14.90;9.13;;;23.00;41.70;;;;;;6063179;28;82906;-63
2022/01/26 18:57:27;;;;;;;14.57;8.52;;;23.00;41.90;;;;;;6055433;28;81413;-63
2022/01/26 19:00:28;;;;;;;14.73;9.15;;;23.00;41.80;;;;;;6049264;28;87571;-63
2022/01/26 19:03:28;;;;;;;14.75;9.32;;;23.00;41.80;;;;;;6056487;28;81546;-63
2022/01/26 19:06:29;;;;;;;15.38;9.10;;;23.00;41.50;;;;;;6061974;28;81110;-63
2022/01/26 19:09:33;;;;;;;13.98;8.57;;;23.00;41.40;;;;;;6053168;28;80835;-62
2022/01/26 19:12:36;;;;;;;12.52;7.82;;;23.00;41.20;;;;;;6062508;28;81375;-63
2022/01/26 19:15:36;;;;;;;15.82;9.23;;;23.00;41.20;;;;;;6045703;28;81568;-64
2022/01/26 19:18:51;;;;;;;14.50;8.27;;;23.00;41.10;;;;;;6056277;28;80514;-63
2022/01/26 19:22:04;;;;;;;13.45;8.82;;;23.00;41.00;;;;;;6064635;28;81137;-63
2022/01/26 19:25:18;;;;;;;13.40;8.77;;;23.00;40.90;;;;;;6065952;28;80468;-64
2022/01/26 19:28:25;;;;;;;12.98;8.20;;;23.00;41.00;;;;;;6048583;28;80564;-63
2022/01/26 19:50:53;;;;;;;14.05;8.38;;;23.10;40.40;;;;;;6065514;28;81811;-63
2022/01/26 19:53:54;;;;;;;13.00;7.70;;;23.10;40.40;;;;;;6048757;28;81767;-63
2022/01/26 19:56:54;;;;;;;14.13;8.75;;;23.10;40.30;;;;;;6051271;28;81120;-63
2022/01/26 19:59:55;;;;;;;13.40;8.43;;;23.10;40.50;;;;;;6063645;28;80490;-63
2022/01/26 20:02:55;;;;;;;12.07;7.95;;;23.10;40.10;;;;;;6051288;28;80331;-62
2022/01/26 20:05:56;;;;;;;12.65;7.97;;;23.10;40.20;;;;;;6048290;28;82595;-61
2022/01/26 20:09:10;;;;;;;14.30;8.45;;;23.10;40.00;;;;;;6065648;28;80365;-62
2022/01/26 20:12:22;;;;;;;12.07;8.10;;;23.10;40.10;;;;;;6063536;28;80569;-63
2022/01/26 20:15:23;;;;;;;11.95;7.43;;;23.00;40.00;;;;;;6053967;28;84779;-63
2022/01/26 20:18:24;;;;;;;13.27;8.82;;;23.10;40.10;;;;;;6048716;28;83948;-66
2022/01/26 20:21:25;;;;;;;13.02;7.45;;;23.10;40.00;;;;;;6065384;28;80435;-62
2022/01/26 20:24:26;;;;;;;14.40;8.75;;;23.00;40.00;;;;;;6064422;28;80888;-63
2022/01/26 20:27:26;;;;;;;12.45;7.43;;;23.00;40.10;;;;;;6054506;28;83757;-63
2022/01/26 20:30:28;;;;;;;11.23;7.47;;;23.00;40.00;;;;;;6065735;28;81220;-63
2022/01/26 20:33:29;;;;;;;15.05;8.02;;;23.00;40.00;;;;;;6067337;28;80446;-62
2022/01/26 20:36:29;;;;;;;12.13;7.80;;;23.00;40.20;;;;;;6048344;28;81567;-62
2022/01/26 20:39:30;;;;;;;11.70;7.28;;;23.00;40.10;;;;;;6064289;28;80577;-63
2022/01/26 20:42:30;;;;;;;11.48;7.30;;;23.00;40.00;;;;;;6064507;28;80304;-63
2022/01/26 20:45:31;;;;;;;15.43;7.78;;;23.00;40.10;;;;;;6077340;28;80762;-62
2022/01/26 20:48:31;;;;;;;12.23;8.20;;;23.00;40.10;;;;;;6065431;28;80389;-62
2022/01/26 20:51:32;;;;;;;11.10;7.25;;;23.00;40.00;;;;;;6066431;28;80841;-62
2022/01/26 20:54:32;;;;;;;12.63;7.63;;;23.00;40.00;;;;;;6065921;28;80690;-62
2022/01/26 20:57:33;;;;;;;12.68;8.18;;;23.00;40.00;;;;;;6062152;28;83505;-63
2022/01/26 21:00:33;;;;;;;12.45;7.60;;;22.90;40.10;;;;;;6060972;28;80370;-62
2022/01/26 21:03:34;;;;;;;13.43;8.35;;;22.90;40.20;;;;;;6064154;28;80914;-62
2022/01/26 21:06:34;;;;;;;13.07;8.25;;;22.90;40.10;;;;;;6063535;28;80469;-62
2022/01/26 21:09:35;;;;;;;13.02;7.32;;;22.90;40.10;;;;;;6055927;28;81397;-62
2022/01/26 21:12:36;;;;;;;13.07;8.43;;;22.90;40.10;;;;;;6056154;28;81313;-62
2022/01/26 21:15:36;;;;;;;13.00;8.35;;;22.90;40.50;;;;;;6064786;28;80644;-63
2022/01/26 21:18:37;;;;;;;14.55;8.38;;;22.90;40.10;;;;;;6064576;28;81093;-64
2022/01/26 21:21:39;;;;;;;15.68;8.88;;;22.90;40.00;;;;;;6063229;28;81503;-63
2022/01/26 21:24:40;;;;;;;16.30;9.82;;;22.90;39.90;;;;;;6066054;28;81929;-62
2022/01/26 21:27:41;;;;;;;15.68;8.40;;;22.90;39.90;;;;;;6060620;28;81444;-62
2022/01/26 21:30:41;;;;;;;14.85;8.82;;;22.90;40.00;;;;;;6057468;28;80893;-64
2022/01/26 21:33:44;;;;;;;15.02;9.73;;;22.90;40.10;;;;;;6059289;28;80952;-64
2022/01/26 21:36:44;;;;;;;20.33;10.85;;;22.90;39.90;;;;;;6059424;28;80518;-63
2022/01/26 21:39:45;;;;;;;18.20;10.73;;;22.90;40.40;;;;;;6049048;28;85737;-63
2022/01/26 21:42:46;;;;;;;18.15;11.45;;;22.80;39.90;;;;;;6055847;28;83494;-64
2022/01/26 21:45:47;;;;;;;17.58;11.07;;;22.80;39.70;;;;;;6057562;28;84253;-66
2022/01/26 21:48:47;;;;;;;18.52;11.27;;;22.80;39.70;;;;;;6052793;28;83203;-65
2022/01/26 21:51:48;;;;;;;16.63;10.10;;;22.80;39.70;;;;;;6050191;28;83123;-65
2022/01/26 21:54:48;;;;;;;18.05;11.57;;;22.80;39.70;;;;;;6051600;28;84245;-65
2022/01/26 21:57:49;;;;;;;18.27;11.52;;;22.80;39.70;;;;;;6052045;28;83164;-65
2022/01/26 22:00:50;;;;;;;18.27;10.88;;;22.80;39.50;;;;;;6057963;28;83725;-63
2022/01/26 22:03:50;;;;;;;18.02;11.82;;;22.80;39.40;;;;;;6064469;28;83469;-63
2022/01/26 22:06:51;;;;;;;18.35;11.18;;;22.80;39.50;;;;;;6048700;28;83973;-63
2022/01/26 22:09:53;;;;;;;21.17;11.73;;;22.80;39.70;;;;;;6054721;28;83332;-64
2022/01/26 22:12:53;;;;;;;16.83;10.35;;;22.80;39.80;;;;;;6052019;28;83763;-64
2022/01/26 22:15:54;;;;;;;22.50;11.40;;;22.80;39.70;;;;;;6059080;28;84438;-64